createdAt,value
2022-09-10T00:00:16.542Z,95.4
2022-09-10T00:01:17.194Z,95.5
2022-09-10T00:02:16.677Z,95.5
2022-09-10T00:03:17.112Z,95.5
2022-09-10T00:04:16.565Z,95.2
2022-09-10T00:05:17.023Z,95.2
2022-09-10T00:06:16.477Z,95.3
2022-09-10T00:07:16.928Z,95.3
2022-09-10T00:08:17.379Z,95.0
2022-09-10T00:09:16.861Z,95.1
2022-09-10T00:10:17.322Z,95.2
2022-09-10T00:11:16.806Z,95.2
2022-09-10T00:12:16.974Z,95.0
2022-09-10T00:13:17.402Z,95.1
2022-09-10T00:14:16.811Z,94.8
2022-09-10T00:15:17.444Z,94.8
2022-09-10T00:16:16.966Z,95.0
2022-09-10T00:17:17.395Z,95.0
2022-09-10T00:18:16.865Z,95.1
2022-09-10T00:19:17.560Z,95.1
2022-09-10T00:20:17.022Z,95.2
2022-09-10T00:21:16.506Z,94.9
2022-09-10T00:22:17.403Z,95.0
2022-09-10T00:23:16.849Z,94.8
2022-09-10T00:24:16.420Z,95.0
2022-09-10T00:25:16.876Z,94.9
2022-09-10T00:26:17.340Z,95.0
2022-09-10T00:27:16.791Z,95.0
2022-09-10T00:28:17.206Z,95.0
2022-09-10T00:29:16.647Z,94.9
2022-09-10T00:30:17.094Z,95.0
2022-09-10T00:31:16.764Z,94.9
2022-09-10T00:32:16.738Z,95.0
2022-09-10T00:33:17.158Z,95.0
2022-09-10T00:34:16.633Z,95.1
2022-09-10T00:35:17.079Z,95.1
2022-09-10T00:36:16.560Z,95.3
2022-09-10T00:37:17.072Z,95.2
2022-09-10T00:38:16.529Z,95.3
2022-09-10T00:39:17.010Z,95.4
2022-09-10T00:40:16.485Z,95.5
2022-09-10T00:41:16.907Z,95.6
2022-09-10T00:42:16.531Z,95.8
2022-09-10T00:43:16.972Z,95.7
2022-09-10T00:44:17.437Z,96.0
2022-09-10T00:45:16.853Z,96.1
2022-09-10T00:46:17.289Z,96.3
2022-09-10T00:47:16.722Z,96.3
2022-09-10T00:48:17.143Z,96.5
2022-09-10T00:49:16.601Z,96.5
2022-09-10T00:50:17.061Z,96.4
2022-09-10T00:51:16.510Z,96.6
2022-09-10T00:52:16.993Z,96.6
2022-09-10T00:53:16.506Z,96.8
2022-09-10T00:54:16.962Z,96.6
2022-09-10T00:55:17.410Z,96.8
2022-09-10T00:56:16.829Z,96.8
2022-09-10T00:57:17.239Z,96.8
2022-09-10T00:58:16.696Z,96.8
2022-09-10T00:59:17.113Z,96.5
2022-09-10T01:00:16.553Z,96.6
2022-09-10T01:01:17.113Z,94.0
2022-09-10T01:02:16.600Z,93.8
2022-09-10T01:03:17.053Z,93.8
2022-09-10T01:04:16.503Z,93.8
2022-09-10T01:05:16.984Z,93.5
2022-09-10T01:06:16.447Z,93.5
2022-09-10T01:07:16.900Z,93.5
2022-09-10T01:08:17.358Z,93.5
2022-09-10T01:09:16.838Z,93.4
2022-09-10T01:10:17.320Z,93.5
2022-09-10T01:11:16.771Z,96.5
2022-09-10T01:12:16.514Z,96.3
2022-09-10T01:13:16.978Z,96.3
2022-09-10T01:14:16.394Z,96.2
2022-09-10T01:15:16.852Z,93.2
2022-09-10T01:16:17.336Z,93.2
2022-09-10T01:17:16.793Z,93.4
2022-09-10T01:18:17.241Z,93.4
2022-09-10T01:19:16.698Z,93.3
2022-09-10T01:20:17.190Z,93.3
2022-09-10T01:21:16.656Z,96.1
2022-09-10T01:22:16.890Z,96.1
2022-09-10T01:23:18.182Z,96.1
2022-09-10T01:24:16.665Z,93.5
2022-09-10T01:25:17.115Z,93.5
2022-09-10T01:26:16.533Z,93.5
2022-09-10T01:27:16.949Z,93.5
2022-09-10T01:28:17.381Z,93.5
2022-09-10T01:29:16.811Z,93.4
2022-09-10T01:30:17.230Z,93.5
2022-09-10T01:31:16.713Z,93.4
2022-09-10T01:32:17.340Z,93.5
2022-09-10T01:33:16.810Z,93.5
2022-09-10T01:34:17.258Z,96.0
2022-09-10T01:35:16.710Z,96.0
2022-09-10T01:36:17.170Z,96.0
2022-09-10T01:37:16.617Z,96.0
2022-09-10T01:38:17.055Z,96.0
2022-09-10T01:39:16.516Z,95.8
2022-09-10T01:40:16.971Z,95.9
2022-09-10T01:41:17.407Z,93.3
2022-09-10T01:42:16.703Z,93.5
2022-09-10T01:43:17.119Z,96.0
2022-09-10T01:44:16.529Z,96.0
2022-09-10T01:45:16.956Z,96.0
2022-09-10T01:46:17.367Z,93.6
2022-09-10T01:47:16.815Z,93.6
2022-09-10T01:48:17.269Z,93.6
2022-09-10T01:49:16.723Z,93.6
2022-09-10T01:50:17.192Z,93.7
2022-09-10T01:51:16.647Z,96.0
2022-09-10T01:52:16.868Z,96.0
2022-09-10T01:53:17.350Z,96.0
2022-09-10T01:54:16.808Z,93.6
2022-09-10T01:55:17.259Z,93.7
2022-09-10T01:56:16.670Z,96.0
2022-09-10T01:57:17.104Z,96.1
2022-09-10T01:58:16.522Z,96.1
2022-09-10T01:59:16.939Z,93.8
2022-09-10T02:00:17.378Z,93.8
2022-09-10T02:01:16.913Z,93.8
2022-09-10T02:02:16.568Z,93.9
2022-09-10T02:03:17.084Z,93.7
2022-09-10T02:04:16.536Z,93.2
2022-09-10T02:05:16.998Z,93.0
2022-09-10T02:06:16.449Z,93.1
2022-09-10T02:07:16.937Z,95.7
2022-09-10T02:08:17.410Z,95.7
2022-09-10T02:09:16.863Z,95.6
2022-09-10T02:10:17.298Z,95.5
2022-09-10T02:11:16.713Z,95.4
2022-09-10T02:12:16.578Z,95.3
2022-09-10T02:13:17.015Z,95.2
2022-09-10T02:14:16.448Z,92.3
2022-09-10T02:15:16.892Z,92.3
2022-09-10T02:16:17.379Z,95.1
2022-09-10T02:17:16.849Z,95.2
2022-09-10T02:18:17.279Z,95.0
2022-09-10T02:19:16.741Z,95.0
2022-09-10T02:20:17.197Z,95.0
2022-09-10T02:21:16.696Z,94.9
2022-09-10T02:22:17.167Z,94.8
2022-09-10T02:23:16.609Z,91.7
2022-09-10T02:24:17.056Z,94.6
2022-09-10T02:25:16.501Z,94.6
2022-09-10T02:26:16.909Z,94.4
2022-09-10T02:27:17.372Z,94.5
2022-09-10T02:28:16.787Z,94.2
2022-09-10T02:29:17.360Z,94.2
2022-09-10T02:30:16.781Z,94.2
2022-09-10T02:31:17.319Z,94.2
2022-09-10T02:32:17.034Z,94.2
2022-09-10T02:33:16.542Z,94.3
2022-09-10T02:34:17.010Z,91.4
2022-09-10T02:35:16.477Z,94.2
2022-09-10T02:36:16.969Z,94.2
2022-09-10T02:37:17.437Z,94.3
2022-09-10T02:38:16.891Z,94.3
2022-09-10T02:39:17.383Z,94.3
2022-09-10T02:40:16.797Z,93.9
2022-09-10T02:41:17.230Z,93.9
2022-09-10T02:42:16.854Z,93.9
2022-09-10T02:43:17.287Z,94.1
2022-09-10T02:44:16.718Z,93.9
2022-09-10T02:45:17.138Z,94.0
2022-09-10T02:46:16.550Z,91.2
2022-09-10T02:47:17.028Z,91.4
2022-09-10T02:48:16.547Z,91.1
2022-09-10T02:49:17.003Z,93.7
2022-09-10T02:50:16.442Z,93.9
2022-09-10T02:51:16.893Z,93.8
2022-09-10T02:52:16.447Z,93.8
2022-09-10T02:53:16.895Z,93.8
2022-09-10T02:54:17.336Z,93.8
2022-09-10T02:55:16.754Z,93.7
2022-09-10T02:56:17.199Z,93.7
2022-09-10T02:57:16.615Z,93.8
2022-09-10T02:58:17.043Z,94.0
2022-09-10T02:59:16.466Z,94.0
2022-09-10T03:00:16.890Z,93.8
2022-09-10T03:01:17.474Z,94.0
2022-09-10T03:02:17.456Z,94.0
2022-09-10T03:03:16.933Z,93.9
2022-09-10T03:04:17.432Z,93.8
2022-09-10T03:05:17.041Z,93.8
2022-09-10T03:06:16.533Z,94.0
2022-09-10T03:07:16.987Z,93.9
2022-09-10T03:08:16.470Z,93.9
2022-09-10T03:09:16.883Z,93.9
2022-09-10T03:10:17.319Z,93.9
2022-09-10T03:11:16.758Z,93.9
2022-09-10T03:12:16.670Z,93.9
2022-09-10T03:13:17.088Z,93.9
2022-09-10T03:14:16.511Z,93.9
2022-09-10T03:15:16.951Z,93.8
2022-09-10T03:16:17.509Z,93.8
2022-09-10T03:17:16.984Z,93.7
2022-09-10T03:18:16.433Z,93.8
2022-09-10T03:19:16.897Z,93.8
2022-09-10T03:20:17.360Z,93.8
2022-09-10T03:21:16.802Z,93.8
2022-09-10T03:22:16.631Z,93.8
2022-09-10T03:23:17.076Z,93.8
2022-09-10T03:24:16.639Z,93.8
2022-09-10T03:25:17.066Z,93.8
2022-09-10T03:26:16.476Z,93.8
2022-09-10T03:27:16.938Z,93.9
2022-09-10T03:28:17.351Z,93.8
2022-09-10T03:29:16.789Z,93.8
2022-09-10T03:30:17.253Z,93.8
2022-09-10T03:31:16.793Z,93.8
2022-09-10T03:32:16.716Z,93.9
2022-09-10T03:33:17.165Z,94.0
2022-09-10T03:34:16.643Z,94.1
2022-09-10T03:35:17.096Z,93.9
2022-09-10T03:36:16.573Z,93.8
2022-09-10T03:37:17.023Z,93.8
2022-09-10T03:38:16.480Z,93.8
2022-09-10T03:39:16.927Z,93.8
2022-09-10T03:40:17.377Z,93.8
2022-09-10T03:41:16.789Z,93.9
2022-09-10T03:42:17.299Z,93.8
2022-09-10T03:43:16.734Z,93.8
2022-09-10T03:44:17.179Z,93.8
2022-09-10T03:45:16.599Z,93.7
2022-09-10T03:46:17.027Z,93.6
2022-09-10T03:47:16.449Z,93.6
2022-09-10T03:48:16.895Z,93.6
2022-09-10T03:49:17.348Z,93.6
2022-09-10T03:50:16.821Z,93.7
2022-09-10T03:51:17.265Z,93.6
2022-09-10T03:52:16.790Z,93.6
2022-09-10T03:53:17.246Z,93.6
2022-09-10T03:54:16.700Z,93.6
2022-09-10T03:55:17.141Z,93.7
2022-09-10T03:56:16.552Z,93.6
2022-09-10T03:57:16.997Z,93.7
2022-09-10T03:58:16.421Z,93.8
2022-09-10T03:59:16.852Z,93.8
2022-09-10T04:00:17.270Z,93.9
2022-09-10T04:01:16.758Z,93.8
2022-09-10T04:02:16.936Z,93.8
2022-09-10T04:03:17.422Z,93.8
2022-09-10T04:04:16.889Z,94.0
2022-09-10T04:05:17.354Z,94.1
2022-09-10T04:06:16.808Z,94.0
2022-09-10T04:07:17.269Z,91.5
2022-09-10T04:08:16.758Z,94.2
2022-09-10T04:09:17.237Z,94.0
2022-09-10T04:10:16.661Z,94.1
2022-09-10T04:11:17.075Z,94.1
2022-09-10T04:12:16.428Z,94.1
2022-09-10T04:13:16.839Z,94.2
2022-09-10T04:14:17.324Z,94.1
2022-09-10T04:15:16.768Z,94.2
2022-09-10T04:16:17.274Z,94.2
2022-09-10T04:17:16.714Z,94.5
2022-09-10T04:18:17.194Z,94.6
2022-09-10T04:19:16.641Z,94.5
2022-09-10T04:20:17.107Z,94.5
2022-09-10T04:21:16.557Z,94.7
2022-09-10T04:22:16.595Z,94.5
2022-09-10T04:23:17.084Z,94.6
2022-09-10T04:24:16.558Z,94.6
2022-09-10T04:25:16.979Z,94.8
2022-09-10T04:26:16.439Z,94.8
2022-09-10T04:27:17.042Z,94.7
2022-09-10T04:28:16.493Z,94.6
2022-09-10T04:29:16.898Z,94.6
2022-09-10T04:30:17.335Z,94.5
2022-09-10T04:31:16.962Z,94.5
2022-09-10T04:32:16.762Z,94.5
2022-09-10T04:33:17.276Z,94.5
2022-09-10T04:34:16.737Z,94.4
2022-09-10T04:35:17.216Z,94.5
2022-09-10T04:36:16.675Z,94.6
2022-09-10T04:37:19.667Z,94.6
2022-09-10T04:38:17.137Z,94.6
2022-09-10T04:39:16.579Z,94.5
2022-09-10T04:40:17.005Z,94.5
2022-09-10T04:41:16.413Z,94.5
2022-09-10T04:42:16.731Z,94.6
2022-09-10T04:43:17.158Z,94.6
2022-09-10T04:44:16.582Z,94.6
2022-09-10T04:45:16.996Z,94.5
2022-09-10T04:46:16.449Z,94.5
2022-09-10T04:47:16.890Z,94.5
2022-09-10T04:48:17.325Z,94.4
2022-09-10T04:49:16.788Z,94.3
2022-09-10T04:50:17.247Z,94.3
2022-09-10T04:51:18.246Z,94.4
2022-09-10T04:52:16.588Z,94.3
2022-09-10T04:53:17.097Z,94.4
2022-09-10T04:54:16.533Z,94.3
2022-09-10T04:55:16.951Z,94.2
2022-09-10T04:56:17.392Z,94.0
2022-09-10T04:57:16.844Z,94.0
2022-09-10T04:58:17.253Z,94.2
2022-09-10T04:59:16.685Z,94.2
2022-09-10T05:00:17.114Z,93.8
2022-09-10T05:01:16.618Z,94.0
2022-09-10T05:02:17.225Z,94.0
2022-09-10T05:03:16.750Z,93.8
2022-09-10T05:04:17.212Z,94.0
2022-09-10T05:05:16.649Z,94.1
2022-09-10T05:06:17.136Z,94.2
2022-09-10T05:07:16.603Z,93.9
2022-09-10T05:08:17.058Z,94.2
2022-09-10T05:09:16.520Z,94.2
2022-09-10T05:10:16.959Z,94.1
2022-09-10T05:11:17.417Z,94.2
2022-09-10T05:12:16.426Z,94.2
2022-09-10T05:13:16.845Z,94.2
2022-09-10T05:14:17.335Z,94.2
2022-09-10T05:15:16.781Z,94.0
2022-09-10T05:16:17.307Z,94.0
2022-09-10T05:17:16.758Z,94.0
2022-09-10T05:18:17.413Z,93.9
2022-09-10T05:19:16.890Z,93.5
2022-09-10T05:20:17.359Z,93.7
2022-09-10T05:21:16.805Z,93.8
2022-09-10T05:22:16.563Z,93.8
2022-09-10T05:23:17.008Z,93.5
2022-09-10T05:24:16.432Z,93.6
2022-09-10T05:25:16.846Z,93.6
2022-09-10T05:26:17.285Z,93.7
2022-09-10T05:27:16.721Z,93.8
2022-09-10T05:28:17.157Z,94.0
2022-09-10T05:29:16.720Z,94.1
2022-09-10T05:30:17.173Z,93.9
2022-09-10T05:31:16.802Z,94.2
2022-09-10T05:32:17.204Z,94.3
2022-09-10T05:33:16.670Z,94.2
2022-09-10T05:34:17.168Z,94.4
2022-09-10T05:35:16.637Z,94.5
2022-09-10T05:36:17.122Z,94.6
2022-09-10T05:37:16.557Z,94.7
2022-09-10T05:38:17.037Z,94.9
2022-09-10T05:39:16.472Z,94.8
2022-09-10T05:40:16.897Z,94.7
2022-09-10T05:41:17.337Z,95.2
2022-09-10T05:42:16.990Z,95.4
2022-09-10T05:43:16.427Z,95.5
2022-09-10T05:44:16.860Z,95.8
2022-09-10T05:45:17.286Z,96.0
2022-09-10T05:46:16.730Z,96.0
2022-09-10T05:47:17.222Z,96.1
2022-09-10T05:48:16.681Z,96.2
2022-09-10T05:49:17.155Z,96.3
2022-09-10T05:50:16.609Z,96.7
2022-09-10T05:51:17.055Z,96.8
2022-09-10T05:52:16.596Z,96.8
2022-09-10T05:53:17.019Z,96.8
2022-09-10T05:54:16.427Z,97.0
2022-09-10T05:55:16.853Z,97.2
2022-09-10T05:56:17.267Z,97.2
2022-09-10T05:57:16.685Z,97.3
2022-09-10T05:58:17.118Z,97.2
2022-09-10T05:59:16.548Z,97.3
2022-09-10T06:00:16.997Z,97.3
2022-09-10T06:01:16.456Z,97.5
2022-09-10T06:02:24.082Z,97.3
2022-09-10T06:03:16.802Z,97.5
2022-09-10T06:04:17.359Z,97.5
2022-09-10T06:05:16.817Z,97.6
2022-09-10T06:06:17.245Z,97.7
2022-09-10T06:07:16.672Z,97.8
2022-09-10T06:08:17.086Z,97.8
2022-09-10T06:09:16.533Z,97.7
2022-09-10T06:10:16.953Z,97.8
2022-09-10T06:11:17.389Z,97.7
2022-09-10T06:12:17.119Z,97.7
2022-09-10T06:13:16.561Z,97.7
2022-09-10T06:14:17.008Z,97.7
2022-09-10T06:15:16.481Z,97.7
2022-09-10T06:16:17.021Z,97.7
2022-09-10T06:17:16.480Z,97.8
2022-09-10T06:18:17.200Z,97.7
2022-09-10T06:19:16.667Z,97.7
2022-09-10T06:20:17.112Z,97.8
2022-09-10T06:21:16.534Z,97.7
2022-09-10T06:22:17.340Z,97.5
2022-09-10T06:23:16.770Z,97.5
2022-09-10T06:24:17.194Z,97.4
2022-09-10T06:25:16.614Z,97.4
2022-09-10T06:26:17.033Z,97.4
2022-09-10T06:27:16.458Z,97.5
2022-09-10T06:28:16.897Z,97.5
2022-09-10T06:29:17.699Z,97.3
2022-09-10T06:30:17.163Z,97.3
2022-09-10T06:31:16.642Z,97.2
2022-09-10T06:32:17.238Z,97.2
2022-09-10T06:33:16.690Z,97.1
2022-09-10T06:34:17.127Z,97.1
2022-09-10T06:35:16.624Z,97.0
2022-09-10T06:36:17.071Z,97.2
2022-09-10T06:37:16.482Z,96.8
2022-09-10T06:38:16.915Z,97.1
2022-09-10T06:39:17.347Z,97.1
2022-09-10T06:40:16.773Z,96.9
2022-09-10T06:41:17.191Z,97.0
2022-09-10T06:42:16.778Z,96.8
2022-09-10T06:43:17.229Z,97.0
2022-09-10T06:44:16.694Z,97.0
2022-09-10T06:45:17.144Z,97.0
2022-09-10T06:47:03.087Z,97.0
2022-09-10T06:48:19.010Z,96.8
2022-09-10T06:48:39.998Z,97.1
2022-09-10T06:49:17.008Z,96.9
2022-09-10T06:50:16.461Z,96.8
2022-09-10T06:51:16.871Z,96.8
2022-09-10T06:52:16.519Z,97.1
2022-09-10T06:53:16.931Z,97.0
2022-09-10T06:54:17.377Z,97.2
2022-09-10T06:55:16.803Z,97.2
2022-09-10T06:56:17.213Z,97.3
2022-09-10T06:57:16.634Z,97.2
2022-09-10T06:58:17.110Z,96.9
2022-09-10T06:59:16.558Z,96.9
2022-09-10T07:00:17.034Z,97.0
2022-09-10T07:01:16.542Z,97.2
2022-09-10T07:02:17.007Z,97.4
2022-09-10T07:03:16.488Z,97.4
2022-09-10T07:04:16.947Z,97.5
2022-09-10T07:05:17.386Z,97.6
2022-09-10T07:06:16.827Z,97.4
2022-09-10T07:07:17.286Z,97.3
2022-09-10T07:08:16.699Z,97.3
2022-09-10T07:09:17.137Z,97.4
2022-09-10T07:10:16.591Z,97.3
2022-09-10T07:11:17.016Z,97.2
2022-09-10T07:12:16.614Z,97.0
2022-09-10T07:13:17.093Z,97.1
2022-09-10T07:14:16.583Z,97.0
2022-09-10T07:15:17.034Z,96.9
2022-09-10T07:16:16.605Z,96.8
2022-09-10T07:17:17.085Z,96.8
2022-09-10T07:18:16.538Z,96.8
2022-09-10T07:19:17.011Z,96.8
2022-09-10T07:20:16.458Z,96.7
2022-09-10T07:21:16.890Z,96.5
2022-09-10T07:22:16.520Z,96.3
2022-09-10T07:23:17.252Z,95.9
2022-09-10T07:24:16.844Z,96.0
2022-09-10T07:25:17.284Z,95.9
2022-09-10T07:26:16.711Z,96.0
2022-09-10T07:27:17.156Z,95.8
2022-09-10T07:28:16.614Z,95.6
2022-09-10T07:29:17.090Z,95.7
2022-09-10T07:30:16.563Z,95.5
2022-09-10T07:31:17.270Z,95.5
2022-09-10T07:32:16.592Z,95.2
2022-09-10T07:33:17.041Z,95.2
2022-09-10T07:34:16.490Z,94.8
2022-09-10T07:35:16.922Z,95.1
2022-09-10T07:36:17.375Z,95.0
2022-09-10T07:37:16.833Z,94.8
2022-09-10T07:38:17.266Z,95.0
2022-09-10T07:39:16.699Z,94.4
2022-09-10T07:40:17.116Z,94.5
2022-09-10T07:41:16.557Z,94.3
2022-09-10T07:42:16.986Z,95.0
2022-09-10T07:43:16.449Z,95.4
2022-09-10T07:44:16.885Z,95.0
2022-09-10T07:45:17.330Z,94.7
2022-09-10T07:46:16.895Z,94.8
2022-09-10T07:47:17.422Z,94.7
2022-09-10T07:48:16.882Z,94.8
2022-09-10T07:49:17.343Z,95.0
2022-09-10T07:50:16.751Z,94.8
2022-09-10T07:51:17.190Z,94.7
2022-09-10T07:52:17.035Z,94.6
2022-09-10T07:53:16.450Z,94.8
2022-09-10T07:54:16.891Z,93.8
2022-09-10T07:55:17.315Z,93.6
2022-09-10T07:56:16.799Z,93.5
2022-09-10T07:57:17.270Z,93.2
2022-09-10T07:58:16.720Z,92.9
2022-09-10T07:59:17.157Z,93.0
2022-09-10T08:00:16.601Z,93.1
2022-09-10T08:01:17.113Z,92.9
2022-09-10T08:02:17.205Z,93.1
2022-09-10T08:03:16.672Z,93.6
2022-09-10T08:04:17.083Z,93.0
2022-09-10T08:05:16.542Z,93.3
2022-09-10T08:06:16.956Z,93.5
2022-09-10T08:07:17.400Z,93.6
2022-09-10T08:08:16.837Z,93.9
2022-09-10T08:09:17.287Z,93.9
2022-09-10T08:10:16.719Z,93.8
2022-09-10T08:11:17.226Z,94.0
2022-09-10T08:12:16.617Z,93.8
2022-09-10T08:13:17.059Z,93.8
2022-09-10T08:14:16.519Z,93.8
2022-09-10T08:15:16.997Z,94.0
2022-09-10T08:16:16.493Z,93.7
2022-09-10T08:17:16.962Z,93.2
2022-09-10T08:18:17.393Z,93.2
2022-09-10T08:19:16.810Z,93.7
2022-09-10T08:20:17.225Z,93.5
2022-09-10T08:21:16.680Z,93.5
2022-09-10T08:22:16.476Z,93.9
2022-09-10T08:23:16.922Z,94.0
2022-09-10T08:24:17.393Z,93.9
2022-09-10T08:25:16.831Z,94.2
2022-09-10T08:26:17.287Z,94.0
2022-09-10T08:27:16.781Z,94.2
2022-09-10T08:28:17.251Z,94.3
2022-09-10T08:29:16.698Z,94.3
2022-09-10T08:30:17.325Z,93.9
2022-09-10T08:31:16.980Z,94.3
2022-09-10T08:32:16.983Z,94.3
2022-09-10T08:33:16.425Z,94.1
2022-09-10T08:34:17.346Z,94.2
2022-09-10T08:35:16.772Z,94.3
2022-09-10T08:36:17.204Z,94.6
2022-09-10T08:37:16.617Z,94.5
2022-09-10T08:38:17.058Z,94.2
2022-09-10T08:39:16.495Z,94.4
2022-09-10T08:40:17.125Z,94.7
2022-09-10T08:41:16.628Z,94.5
2022-09-10T08:42:16.845Z,94.6
2022-09-10T08:43:17.310Z,94.8
2022-09-10T08:44:16.777Z,94.8
2022-09-10T08:45:17.235Z,94.2
2022-09-10T08:46:16.709Z,94.6
2022-09-10T08:47:17.139Z,94.7
2022-09-10T08:48:16.595Z,94.7
2022-09-10T08:49:17.032Z,94.7
2022-09-10T08:50:16.444Z,94.3
2022-09-10T08:51:16.875Z,93.8
2022-09-10T08:52:16.509Z,94.3
2022-09-10T08:53:16.949Z,94.3
2022-09-10T08:54:17.400Z,94.7
2022-09-10T08:55:16.843Z,94.8
2022-09-10T08:56:17.308Z,94.5
2022-09-10T08:57:16.763Z,94.5
2022-09-10T08:58:17.234Z,94.8
2022-09-10T08:59:16.692Z,95.2
2022-09-10T09:00:17.157Z,95.2
2022-09-10T09:01:16.720Z,95.3
2022-09-10T09:02:47.554Z,94.8
2022-09-10T09:03:16.940Z,95.2
2022-09-10T09:04:16.393Z,95.1
2022-09-10T09:05:16.828Z,94.8
2022-09-10T09:06:17.253Z,95.0
2022-09-10T09:07:16.675Z,94.9
2022-09-10T09:08:17.083Z,94.9
2022-09-10T09:09:16.511Z,95.1
2022-09-10T09:10:16.979Z,95.4
2022-09-10T09:11:16.426Z,95.4
2022-09-10T09:12:16.821Z,95.2
2022-09-10T09:13:17.272Z,94.9
2022-09-10T09:14:16.737Z,95.0
2022-09-10T09:15:17.207Z,95.2
2022-09-10T09:16:16.653Z,95.0
2022-09-10T09:17:17.079Z,94.6
2022-09-10T09:18:17.514Z,94.3
2022-09-10T09:19:16.932Z,94.2
2022-09-10T09:20:17.356Z,94.3
2022-09-10T09:21:16.799Z,94.2
2022-09-10T09:22:16.436Z,93.8
2022-09-10T09:23:16.852Z,93.7
2022-09-10T09:24:17.344Z,93.8
2022-09-10T09:25:16.810Z,93.8
2022-09-10T09:26:17.261Z,93.3
2022-09-10T09:27:16.720Z,93.2
2022-09-10T09:28:17.168Z,92.8
2022-09-10T09:29:16.629Z,92.7
2022-09-10T09:30:17.080Z,92.3
2022-09-10T09:31:16.558Z,92.2
2022-09-10T09:32:17.272Z,92.2
2022-09-10T09:33:16.681Z,91.6
2022-09-10T09:34:17.122Z,91.2
2022-09-10T09:35:16.827Z,91.5
2022-09-10T09:36:17.248Z,90.8
2022-09-10T09:37:16.684Z,90.2
2022-09-10T09:38:17.153Z,90.4
2022-09-10T09:39:16.618Z,90.2
2022-09-10T09:40:17.114Z,89.9
2022-09-10T09:41:16.580Z,90.1
2022-09-10T09:42:17.201Z,90.5
2022-09-10T09:43:16.659Z,89.9
2022-09-10T09:44:17.132Z,90.3
2022-09-10T09:45:16.625Z,90.4
2022-09-10T09:46:17.088Z,90.2
2022-09-10T09:47:16.507Z,90.2
2022-09-10T09:48:16.943Z,90.5
2022-09-10T09:49:17.407Z,90.6
2022-09-10T09:50:16.822Z,90.2
2022-09-10T09:51:17.257Z,90.6
2022-09-10T09:52:17.107Z,90.3
2022-09-10T09:53:16.537Z,90.3
2022-09-10T09:55:03.488Z,89.8
2022-09-10T09:55:16.458Z,89.5
2022-09-10T09:56:16.943Z,89.8
2022-09-10T09:57:17.416Z,90.3
2022-09-10T09:58:16.867Z,90.0
2022-09-10T09:59:17.335Z,89.8
2022-09-10T10:00:16.845Z,89.8
2022-09-10T10:01:17.327Z,89.2
2022-09-10T10:02:16.859Z,89.5
2022-09-10T10:03:17.327Z,89.6
2022-09-10T10:04:16.762Z,90.0
2022-09-10T10:05:17.194Z,90.4
2022-09-10T10:06:16.626Z,90.2
2022-09-10T10:07:17.089Z,90.1
2022-09-10T10:08:16.574Z,90.2
2022-09-10T10:09:17.045Z,90.3
2022-09-10T10:10:16.497Z,90.5
2022-09-10T10:11:16.948Z,90.3
2022-09-10T10:12:17.382Z,90.6
2022-09-10T10:13:16.835Z,90.3
2022-09-10T10:14:17.291Z,90.3
2022-09-10T10:15:16.740Z,90.5
2022-09-10T10:16:17.157Z,90.6
2022-09-10T10:17:16.592Z,91.7
2022-09-10T10:18:17.025Z,91.3
2022-09-10T10:19:16.443Z,91.5
2022-09-10T10:20:16.862Z,92.5
2022-09-10T10:21:17.313Z,91.8
2022-09-10T10:22:16.476Z,91.8
2022-09-10T10:23:16.945Z,92.5
2022-09-10T10:24:17.416Z,92.6
2022-09-10T10:25:16.904Z,92.9
2022-09-10T10:26:17.341Z,93.2
2022-09-10T10:27:16.781Z,92.8
2022-09-10T10:28:17.247Z,93.3
2022-09-10T10:29:16.666Z,94.0
2022-09-10T10:30:17.128Z,94.2
2022-09-10T10:31:16.706Z,94.3
2022-09-10T10:32:16.631Z,94.8
2022-09-10T10:33:17.086Z,94.7
2022-09-10T10:34:16.499Z,94.5
2022-09-10T10:35:16.937Z,94.8
2022-09-10T10:36:17.390Z,94.9
2022-09-10T10:37:16.829Z,95.0
2022-09-10T10:38:17.265Z,95.0
2022-09-10T10:39:16.856Z,95.3
2022-09-10T10:40:17.312Z,95.7
2022-09-10T10:41:16.771Z,95.9
2022-09-10T10:42:17.181Z,96.2
2022-09-10T10:43:16.666Z,96.3
2022-09-10T10:44:17.084Z,96.5
2022-09-10T10:45:16.500Z,96.9
2022-09-10T10:46:17.014Z,97.1
2022-09-10T10:47:16.465Z,97.2
2022-09-10T10:48:16.872Z,97.3
2022-09-10T10:49:17.311Z,97.4
2022-09-10T10:50:16.741Z,96.8
2022-09-10T10:51:17.190Z,97.0
2022-09-10T10:52:16.718Z,97.1
2022-09-10T10:53:17.168Z,97.2
2022-09-10T10:54:16.616Z,97.3
2022-09-10T10:55:17.070Z,97.4
2022-09-10T10:56:16.546Z,97.6
2022-09-10T10:57:16.995Z,97.5
2022-09-10T10:58:16.488Z,97.4
2022-09-10T10:59:16.908Z,97.3
2022-09-10T11:00:17.348Z,97.6
2022-09-10T11:01:16.918Z,97.8
2022-09-10T11:02:16.902Z,97.6
2022-09-10T11:03:17.393Z,97.4
2022-09-10T11:04:16.824Z,97.5
2022-09-10T11:05:17.249Z,97.1
2022-09-10T11:06:16.688Z,97.0
2022-09-10T11:07:17.154Z,96.8
2022-09-10T11:08:16.618Z,96.3
2022-09-10T11:09:17.090Z,96.5
2022-09-10T11:10:16.547Z,96.7
2022-09-10T11:11:17.068Z,96.3
2022-09-10T11:12:16.501Z,96.1
2022-09-10T11:13:16.922Z,95.9
2022-09-10T11:14:17.397Z,96.1
2022-09-10T11:15:16.815Z,95.8
2022-09-10T11:16:17.340Z,95.5
2022-09-10T11:17:16.796Z,95.4
2022-09-10T11:18:17.233Z,95.5
2022-09-10T11:19:16.688Z,95.6
2022-09-10T11:20:29.853Z,94.3
2022-09-10T11:21:16.580Z,94.0
2022-09-10T11:22:16.461Z,94.1
2022-09-10T11:23:16.906Z,94.1
2022-09-10T11:24:17.615Z,93.8
2022-09-10T11:25:17.123Z,93.8
2022-09-10T11:26:16.573Z,93.4
2022-09-10T11:27:17.020Z,93.5
2022-09-10T11:28:16.434Z,93.8
2022-09-10T11:29:16.885Z,93.4
2022-09-10T11:30:17.336Z,93.8
2022-09-10T11:31:16.918Z,93.5
2022-09-10T11:32:16.432Z,93.2
2022-09-10T11:33:16.864Z,93.3
2022-09-10T11:34:17.334Z,93.1
2022-09-10T11:35:16.792Z,93.8
2022-09-10T11:36:17.232Z,93.9
2022-09-10T11:37:16.683Z,93.8
2022-09-10T11:38:17.152Z,94.3
2022-09-10T11:39:16.601Z,94.5
2022-09-10T11:40:17.056Z,94.2
2022-09-10T11:41:16.665Z,93.8
2022-09-10T11:42:17.089Z,94.1
2022-09-10T11:43:16.518Z,93.8
2022-09-10T11:44:16.940Z,93.8
2022-09-10T11:45:17.375Z,94.3
2022-09-10T11:46:16.930Z,94.5
2022-09-10T11:47:17.380Z,93.7
2022-09-10T11:48:16.812Z,93.6
2022-09-10T11:49:17.256Z,93.5
2022-09-10T11:50:16.718Z,93.3
2022-09-10T11:51:17.221Z,93.4
2022-09-10T11:52:16.845Z,93.4
2022-09-10T11:53:17.283Z,92.8
2022-09-10T11:54:16.714Z,93.2
2022-09-10T11:55:17.222Z,93.1
2022-09-10T11:56:16.719Z,92.0
2022-09-10T11:57:17.136Z,92.4
2022-09-10T11:58:16.559Z,92.7
2022-09-10T11:59:16.974Z,93.1
2022-09-10T12:00:17.389Z,92.2
2022-09-10T12:01:16.852Z,92.3
2022-09-10T12:02:16.653Z,93.1
2022-09-10T12:03:17.262Z,93.1
2022-09-10T12:04:16.742Z,92.9
2022-09-10T12:05:17.189Z,91.1
2022-09-10T12:06:16.657Z,90.8
2022-09-10T12:07:17.163Z,91.0
2022-09-10T12:08:16.643Z,91.5
2022-09-10T12:09:17.111Z,91.7
2022-09-10T12:10:16.575Z,90.6
2022-09-10T12:11:17.038Z,90.5
2022-09-10T12:12:17.055Z,90.4
2022-09-10T12:13:16.472Z,90.6
2022-09-10T12:14:16.966Z,89.6
2022-09-10T12:15:17.405Z,90.0
2022-09-10T12:16:16.978Z,90.2
2022-09-10T12:17:16.460Z,91.2
2022-09-10T12:18:16.881Z,91.4
2022-09-10T12:19:17.340Z,91.3
2022-09-10T12:20:16.825Z,91.2
2022-09-10T12:21:17.297Z,90.8
2022-09-10T12:22:17.175Z,90.4
2022-09-10T12:23:16.669Z,89.5
2022-09-10T12:24:17.143Z,88.5
2022-09-10T12:25:16.589Z,88.3
2022-09-10T12:26:17.031Z,87.5
2022-09-10T12:27:16.463Z,87.5
2022-09-10T12:28:16.882Z,87.3
2022-09-10T12:29:17.359Z,87.0
2022-09-10T12:30:16.800Z,86.8
2022-09-10T12:31:17.396Z,86.8
2022-09-10T12:32:16.982Z,86.1
2022-09-10T12:33:16.406Z,86.6
2022-09-10T12:34:16.870Z,87.2
2022-09-10T12:35:17.361Z,87.0
2022-09-10T12:36:16.808Z,85.6
2022-09-10T12:37:17.454Z,84.7
2022-09-10T12:38:16.908Z,86.1
2022-09-10T12:39:17.373Z,86.1
2022-09-10T12:40:16.970Z,84.0
2022-09-10T12:41:16.448Z,84.4
2022-09-10T12:42:17.043Z,84.2
2022-09-10T12:43:16.459Z,84.0
2022-09-10T12:44:17.132Z,83.2
2022-09-10T12:45:16.568Z,82.4
2022-09-10T12:46:17.066Z,81.4
2022-09-10T12:47:16.540Z,81.5
2022-09-10T12:48:16.978Z,80.7
2022-09-10T12:49:16.452Z,80.2
2022-09-10T12:50:16.906Z,80.4
2022-09-10T12:51:17.394Z,79.5
2022-09-10T12:52:17.053Z,80.4
2022-09-10T12:53:16.511Z,81.4
2022-09-10T12:54:16.970Z,81.4
2022-09-10T12:55:17.430Z,80.6
2022-09-10T12:56:16.841Z,80.4
2022-09-10T12:57:17.302Z,80.6
2022-09-10T12:58:16.715Z,79.2
2022-09-10T12:59:17.154Z,79.4
2022-09-10T13:00:16.606Z,79.0
2022-09-10T13:01:17.285Z,79.4
2022-09-10T13:02:17.013Z,79.5
2022-09-10T13:03:16.599Z,78.9
2022-09-10T13:04:17.056Z,79.1
2022-09-10T13:05:16.520Z,79.0
2022-09-10T13:06:17.011Z,79.1
2022-09-10T13:07:16.455Z,78.6
2022-09-10T13:08:16.913Z,78.1
2022-09-10T13:09:17.405Z,78.2
2022-09-10T13:10:22.171Z,77.5
2022-09-10T13:11:16.709Z,76.0
2022-09-10T13:12:17.026Z,76.5
2022-09-10T13:13:16.464Z,76.6
2022-09-10T13:14:16.880Z,76.1
2022-09-10T13:15:17.295Z,76.5
2022-09-10T13:16:16.718Z,75.7
2022-09-10T13:17:17.142Z,75.5
2022-09-10T13:18:16.617Z,75.7